Bookmark and Share
Track history (hours):
 

Arethusa

Last reported at 2014-Apr-16 15:34 UTC. Time now 2014-Apr-16 16:08 UTC.
Position N 44°03' E 009°51'.

Length 60 m; draft 3 m.

Type: Passenger vessel. MMSI: 249069000.

NotesDate/timePositionNaut miles runAvg speedWind from/ knotsBaromVisibWave heightAir tempDewpointWater temp
2014-Apr-16 15:34N 44°03' E 009°51'0 0.0
2014-Apr-16 14:33N 44°03' E 009°51'0 0.0
2014-Apr-16 13:33N 44°03' E 009°51'0 0.0
2014-Apr-16 12:33N 44°03' E 009°51'0 0.1
2014-Apr-16 11:33N 44°03' E 009°51'0 0.0
2014-Apr-16 10:33N 44°03' E 009°51'0 0.0
2014-Apr-16 09:33N 44°03' E 009°51'0 0.0
2014-Apr-16 08:33N 44°03' E 009°51'0 0.0
2014-Apr-16 07:33N 44°03' E 009°51'0 0.0
2014-Apr-16 06:33N 44°03' E 009°51'0 0.0
2014-Apr-16 05:33N 44°03' E 009°51'0 0.0
2014-Apr-16 04:33N 44°03' E 009°51'0 0.0
2014-Apr-16 03:33N 44°03' E 009°51'0 0.0
2014-Apr-16 02:33N 44°03' E 009°51'0 0.0
2014-Apr-16 01:33N 44°03' E 009°51'0 0.0
2014-Apr-16 00:33N 44°03' E 009°51'0 0.0
2014-Apr-15 23:33N 44°03' E 009°51'0 0.0
2014-Apr-15 22:33N 44°03' E 009°51'0 0.0
2014-Apr-15 21:33N 44°03' E 009°51'0 0.0
2014-Apr-15 20:33N 44°03' E 009°51'3 3.4
2014-Apr-15 19:33N 44°01' E 009°54'1010.4
2014-Apr-15 18:33N 44°03' E 009°39'1111.4
2014-Apr-15 17:33N 44°10' E 009°28'19 1.4
2014-Apr-15 03:34N 44°14' E 009°02'1110.8
2014-Apr-15 02:34N 44°09' E 008°48'1211.7
2014-Apr-15 01:33N 44°03' E 008°34'  
2014-Apr-12 05:32N 43°41' E 007°17'6612.1
2014-Apr-12 00:07N 44°03' E 008°43'812.1
2014-Apr-11 23:29N 44°07' E 008°52'1112.1
2014-Apr-11 22:33N 44°12' E 009°06'10 0.4
2014-Apr-10 18:27N 44°16' E 009°19'1112.3
2014-Apr-10 17:33N 44°09' E 009°31'1212.3
2014-Apr-10 16:34N 44°01' E 009°44'6 5.7
2014-Apr-10 15:31N 44°03' E 009°51'0 0.0
2014-Apr-10 14:34N 44°03' E 009°51'0 0.0
2014-Apr-10 13:33N 44°03' E 009°51'0 0.0
2014-Apr-10 12:34N 44°03' E 009°51'0 0.0
2014-Apr-10 11:33N 44°03' E 009°51'0 0.0
2014-Apr-10 10:33N 44°03' E 009°51'0 0.0
2014-Apr-10 09:33N 44°03' E 009°51'0 0.0
2014-Apr-10 08:34N 44°03' E 009°51'0 0.0
2014-Apr-10 07:33N 44°03' E 009°51'0 0.0
2014-Apr-10 06:34N 44°03' E 009°51'6 6.2
2014-Apr-10 05:34N 44°01' E 009°59'3 0.2
2014-Apr-09 16:10N 44°02' E 010°02'0 0.0
2014-Apr-09 15:26N 44°02' E 010°02'0 0.0
2014-Apr-09 14:34N 44°02' E 010°02'0 0.0
2014-Apr-09 13:26N 44°02' E 010°02'0 0.0
2014-Apr-09 12:13N 44°02' E 010°02'0 0.0
2014-Apr-09 11:26N 44°02' E 010°02'0 0.0
2014-Apr-09 10:32N 44°02' E 010°02'0 0.0
2014-Apr-09 09:33N 44°02' E 010°02'0 0.0
2014-Apr-09 08:33N 44°02' E 010°02'0 0.0
2014-Apr-09 07:32N 44°02' E 010°02'0 0.0
2014-Apr-09 06:33N 44°02' E 010°02'0 0.0
2014-Apr-09 05:34N 44°02' E 010°02'1111.1
2014-Apr-09 04:33N 43°51' E 010°05'1211.6
2014-Apr-09 03:33N 43°40' E 010°05'1110.7
2014-Apr-09 02:33N 43°29' E 010°04'1110.6
2014-Apr-09 01:34N 43°19' E 010°01'30 0.9
2014-Apr-07 17:18N 42°49' E 010°04'912.2
2014-Apr-07 16:33N 42°52' E 010°16'5 0.3
2014-Apr-07 02:29N 42°48' E 010°20'0 0.0
2014-Apr-07 00:13N 42°48' E 010°20'0 0.0
2014-Apr-06 20:05N 42°48' E 010°20'0 0.5
2014-Apr-06 19:33N 42°49' E 010°20'1211.9
2014-Apr-06 18:33N 43°00' E 010°18'1212.0
2014-Apr-06 17:33N 43°12' E 010°15'1212.0
2014-Apr-06 16:33N 43°24' E 010°13'  

Dump ship's entire track history

sailing weather and tide predictions

Arethusa — 9HJR9 — position and weather